Time;durP1;ratioP1;P1;durP2;ratioP2;P2;SDS_P1;SDS_P2;PMS_P1;PMS_P2;Temp;Humidity;BMP_temperature;BMP_pressure;BME280_temperature;BME280_humidity;BME280_pressure;Samples;Min_cycle;Max_cycle;Signal;HPM_P1;HPM_P2
2022/06/24 00:01:59;;;;;;;3.50;1.60;;;;;;;;;;5027737;28;20089;-85
2022/06/24 00:04:28;;;;;;;4.30;1.83;;;;;;;;;;5012203;28;20119;-85
2022/06/24 00:06:54;;;;;;;3.22;1.58;;;;;;;;;;5040720;28;20047;-85
2022/06/24 00:09:20;;;;;;;3.58;1.30;;;;;;;;;;5023599;28;20028;-84
2022/06/24 00:11:59;;;;;;;2.60;1.13;;;;;;;;;;5039836;28;20119;-84
2022/06/24 00:14:25;;;;;;;3.97;1.75;;;;;;;;;;5039123;28;20075;-84
2022/06/24 00:17:01;;;;;;;2.78;1.30;;;;;;;;;;5017061;28;20037;-83
2022/06/24 00:19:29;;;;;;;6.80;1.48;;;;;;;;;;5023238;28;20028;-84
2022/06/24 00:21:58;;;;;;;4.45;1.23;;;;;;;;;;5039909;28;20040;-84
2022/06/24 00:24:25;;;;;;;4.15;1.42;;;;;;;;;;5039711;28;20119;-84
2022/06/24 00:26:50;;;;;;;3.83;1.33;;;;;;;;;;5023017;28;20032;-84
2022/06/24 00:29:16;;;;;;;3.55;1.10;;;;;;;;;;5039134;28;20039;-85
2022/06/24 00:31:42;;;;;;;4.03;1.73;;;;;;;;;;5022879;28;20037;-85
2022/06/24 00:34:23;;;;;;;4.35;1.33;;;;;;;;;;5023397;28;20150;-85
2022/06/24 00:36:50;;;;;;;4.72;1.95;;;;;;;;;;5023215;28;20036;-84
2022/06/24 00:39:16;;;;;;;3.75;1.50;;;;;;;;;;5039292;28;20028;-85
2022/06/24 00:41:42;;;;;;;3.67;1.20;;;;;;;;;;5042564;28;20040;-85
2022/06/24 00:44:08;;;;;;;2.42;1.13;;;;;;;;;;5041912;28;20055;-85
2022/06/24 00:46:36;;;;;;;3.17;0.90;;;;;;;;;;5042876;28;20032;-85
2022/06/24 00:49:01;;;;;;;4.07;1.40;;;;;;;;;;5026522;28;20058;-85
2022/06/24 00:51:36;;;;;;;3.33;1.35;;;;;;;;;;5026511;28;20036;-85
2022/06/24 00:54:09;;;;;;;3.00;1.13;;;;;;;;;;5042801;28;20093;-86
2022/06/24 00:56:38;;;;;;;2.25;1.33;;;;;;;;;;5043240;28;20067;-86
2022/06/24 00:59:08;;;;;;;3.72;1.20;;;;;;;;;;5026097;28;20027;-86
2022/06/24 01:01:38;;;;;;;2.75;1.30;;;;;;;;;;5026029;28;20519;-85
2022/06/24 01:04:10;;;;;;;4.60;1.27;;;;;;;;;;5059524;28;20028;-86
2022/06/24 01:06:39;;;;;;;2.00;0.95;;;;;;;;;;5059631;28;20028;-86
2022/06/24 01:09:05;;;;;;;3.08;1.20;;;;;;;;;;5043100;28;20115;-88
2022/06/24 01:11:35;;;;;;;2.95;1.55;;;;;;;;;;5042274;28;20042;-89
2022/06/24 01:14:01;;;;;;;1.85;1.00;;;;;;;;;;5059075;28;20085;-86
2022/06/24 01:16:35;;;;;;;2.78;1.10;;;;;;;;;;5026091;28;20028;-86
2022/06/24 01:19:07;;;;;;;3.13;1.05;;;;;;;;;;5042675;28;20042;-86
2022/06/24 01:21:40;;;;;;;2.88;1.13;;;;;;;;;;5059409;28;20028;-86
2022/06/24 01:24:15;;;;;;;2.90;1.10;;;;;;;;;;5058723;28;20050;-85
2022/06/24 01:26:44;;;;;;;3.25;1.42;;;;;;;;;;5042771;28;20037;-86
2022/06/24 01:29:13;;;;;;;3.67;1.60;;;;;;;;;;5026557;28;20089;-87
2022/06/24 01:31:41;;;;;;;4.53;1.38;;;;;;;;;;5042397;28;20439;-87
2022/06/24 01:34:08;;;;;;;3.40;1.45;;;;;;;;;;5026071;28;20032;-87
2022/06/24 01:36:36;;;;;;;3.22;1.55;;;;;;;;;;5026313;28;20035;-87
2022/06/24 01:39:03;;;;;;;2.67;1.45;;;;;;;;;;5026310;28;20126;-85
2022/06/24 01:41:32;;;;;;;2.60;1.60;;;;;;;;;;5025664;28;20036;-87
2022/06/24 01:43:57;;;;;;;2.83;1.60;;;;;;;;;;5042349;28;20028;-87
2022/06/24 01:46:26;;;;;;;2.72;1.58;;;;;;;;;;5025886;28;20139;-87
2022/06/24 01:48:51;;;;;;;3.00;2.00;;;;;;;;;;5025505;28;20031;-87
2022/06/24 01:51:18;;;;;;;3.22;1.20;;;;;;;;;;5038374;28;20098;-86
2022/06/24 01:53:47;;;;;;;3.33;1.63;;;;;;;;;;5022100;28;20055;-86
2022/06/24 01:56:13;;;;;;;2.80;1.67;;;;;;;;;;5005043;28;20036;-85
2022/06/24 01:58:39;;;;;;;2.67;1.45;;;;;;;;;;5022120;28;20032;-86
2022/06/24 02:01:04;;;;;;;3.42;1.65;;;;;;;;;;5005170;28;20047;-86
2022/06/24 02:03:31;;;;;;;3.17;1.80;;;;;;;;;;5021394;28;20028;-85
2022/06/24 02:06:01;;;;;;;3.85;1.80;;;;;;;;;;5021828;28;20025;-86
2022/06/24 02:08:27;;;;;;;2.75;1.30;;;;;;;;;;5021152;28;20035;-85
2022/06/24 02:13:42;;;;;;;2.72;1.52;;;;;;;;;;5026501;28;20041;-86
2022/06/24 02:16:10;;;;;;;3.80;1.65;;;;;;;;;;5021985;28;20056;-85
2022/06/24 02:18:35;;;;;;;4.72;1.75;;;;;;;;;;5021467;28;20039;-85
2022/06/24 02:21:01;;;;;;;3.60;1.65;;;;;;;;;;5038019;28;20036;-86
2022/06/24 02:23:26;;;;;;;2.47;1.52;;;;;;;;;;5037773;28;20037;-85
2022/06/24 02:25:53;;;;;;;4.85;1.65;;;;;;;;;;5021221;28;20028;-85
2022/06/24 02:28:20;;;;;;;4.78;2.30;;;;;;;;;;5021350;28;20128;-86
2022/06/24 02:30:51;;;;;;;3.30;1.40;;;;;;;;;;5021414;28;20028;-86
2022/06/24 02:33:18;;;;;;;3.93;2.00;;;;;;;;;;5038215;28;20032;-86
2022/06/24 02:35:44;;;;;;;4.43;1.55;;;;;;;;;;5021505;28;20498;-87
2022/06/24 02:38:13;;;;;;;3.45;1.65;;;;;;;;;;5054370;28;20128;-86
2022/06/24 02:40:45;;;;;;;4.45;1.40;;;;;;;;;;5037799;28;20039;-86
2022/06/24 02:43:18;;;;;;;3.30;1.40;;;;;;;;;;5038594;28;20055;-85
2022/06/24 02:45:44;;;;;;;4.18;2.20;;;;;;;;;;5021182;28;20060;-86
2022/06/24 02:48:10;;;;;;;3.35;1.60;;;;;;;;;;5021941;28;20051;-87
2022/06/24 02:50:43;;;;;;;3.00;1.50;;;;;;;;;;5037637;28;20032;-85
2022/06/24 02:53:09;;;;;;;5.97;1.67;;;;;;;;;;5021931;28;20123;-86
2022/06/24 02:55:36;;;;;;;4.25;2.25;;;;;;;;;;5021781;28;20502;-86
2022/06/24 02:58:03;;;;;;;4.03;1.60;;;;;;;;;;5005169;28;20036;-89
2022/06/24 03:00:29;;;;;;;4.30;2.22;;;;;;;;;;5004279;28;20024;-85
2022/06/24 03:02:54;;;;;;;4.15;1.42;;;;;;;;;;5037679;28;20076;-86
2022/06/24 03:05:21;;;;;;;3.65;1.40;;;;;;;;;;5021190;28;20032;-85
2022/06/24 03:07:49;;;;;;;4.45;1.60;;;;;;;;;;5023441;28;20040;-86
2022/06/24 03:10:16;;;;;;;3.47;1.92;;;;;;;;;;5058093;28;20028;-86
2022/06/24 03:12:42;;;;;;;3.63;1.70;;;;;;;;;;5041474;28;20123;-86
2022/06/24 03:15:08;;;;;;;2.78;1.50;;;;;;;;;;5041206;28;20040;-86
2022/06/24 03:17:37;;;;;;;3.10;1.60;;;;;;;;;;5008497;28;20033;-86
2022/06/24 03:20:05;;;;;;;4.82;1.65;;;;;;;;;;5057741;28;20032;-86
2022/06/24 03:22:31;;;;;;;3.85;1.73;;;;;;;;;;5024766;28;20032;-85
2022/06/24 03:24:57;;;;;;;4.28;1.83;;;;;;;;;;5024995;28;20025;-86
2022/06/24 03:27:22;;;;;;;3.25;1.80;;;;;;;;;;5025048;28;20040;-87
2022/06/24 03:29:51;;;;;;;5.40;1.95;;;;;;;;;;5040914;28;20086;-87
2022/06/24 03:32:17;;;;;;;3.08;1.60;;;;;;;;;;5058141;28;20038;-86
2022/06/24 03:34:46;;;;;;;2.88;1.70;;;;;;;;;;5024856;28;20486;-87
2022/06/24 03:37:11;;;;;;;4.78;1.90;;;;;;;;;;5024574;28;20064;-86
2022/06/24 03:39:38;;;;;;;3.10;1.83;;;;;;;;;;5027952;28;20034;-87
2022/06/24 03:42:04;;;;;;;3.45;2.03;;;;;;;;;;5028236;28;20040;-88
2022/06/24 03:44:29;;;;;;;3.33;1.77;;;;;;;;;;5044544;28;20059;-88
2022/06/24 03:46:55;;;;;;;3.45;2.00;;;;;;;;;;5028174;28;20028;-87
2022/06/24 03:49:23;;;;;;;2.30;1.50;;;;;;;;;;5044957;28;20116;-90
2022/06/24 03:51:51;;;;;;;2.22;1.33;;;;;;;;;;5028274;28;20127;-90
2022/06/24 03:54:19;;;;;;;3.08;1.60;;;;;;;;;;5028309;28;20085;-89
2022/06/24 03:56:46;;;;;;;2.78;1.75;;;;;;;;;;5027974;28;20036;-88
2022/06/24 03:59:15;;;;;;;2.75;1.48;;;;;;;;;;5027664;28;20059;-88
2022/06/24 04:01:40;;;;;;;2.38;1.30;;;;;;;;;;5044036;28;20123;-87
2022/06/24 04:04:06;;;;;;;2.47;1.50;;;;;;;;;;5027649;28;20071;-88
2022/06/24 04:06:31;;;;;;;1.98;1.45;;;;;;;;;;5027670;28;20040;-87
2022/06/24 04:08:59;;;;;;;3.03;1.83;;;;;;;;;;5027458;28;20036;-86
2022/06/24 04:11:26;;;;;;;3.67;1.60;;;;;;;;;;5043961;28;20036;-86
2022/06/24 04:13:52;;;;;;;3.95;1.77;;;;;;;;;;5027475;28;20032;-85
2022/06/24 04:16:18;;;;;;;2.35;1.25;;;;;;;;;;5043660;28;20085;-85
2022/06/24 04:18:46;;;;;;;4.90;2.17;;;;;;;;;;5027094;28;20034;-86
2022/06/24 04:21:14;;;;;;;3.70;1.70;;;;;;;;;;5060324;28;20426;-86
2022/06/24 04:23:39;;;;;;;2.30;1.00;;;;;;;;;;5043046;28;20389;-86
2022/06/24 04:26:08;;;;;;;2.17;1.25;;;;;;;;;;5027186;28;20107;-86
2022/06/24 04:28:35;;;;;;;3.10;1.20;;;;;;;;;;5043289;28;20036;-86
2022/06/24 04:31:01;;;;;;;2.33;1.20;;;;;;;;;;5026886;28;20032;-85
2022/06/24 04:33:27;;;;;;;4.47;1.27;;;;;;;;;;5024397;28;20131;-85
2022/06/24 04:35:55;;;;;;;3.88;1.30;;;;;;;;;;5042999;28;20024;-85
2022/06/24 04:38:22;;;;;;;2.70;1.27;;;;;;;;;;5042912;28;20043;-85
2022/06/24 04:40:48;;;;;;;3.13;1.25;;;;;;;;;;5043144;28;20043;-86
2022/06/24 04:43:14;;;;;;;3.85;1.80;;;;;;;;;;5026665;28;20115;-85
2022/06/24 04:45:40;;;;;;;2.95;1.48;;;;;;;;;;5026473;28;20036;-85
2022/06/24 04:48:06;;;;;;;2.22;1.40;;;;;;;;;;5026617;28;20036;-85
2022/06/24 04:50:31;;;;;;;2.67;0.90;;;;;;;;;;5042396;28;20036;-85
2022/06/24 04:52:59;;;;;;;2.53;1.63;;;;;;;;;;5026188;28;20490;-85
2022/06/24 04:55:24;;;;;;;4.75;1.38;;;;;;;;;;5043005;28;20093;-85
2022/06/24 04:57:51;;;;;;;2.28;1.00;;;;;;;;;;5026357;28;20114;-85
2022/06/24 05:00:18;;;;;;;2.53;0.95;;;;;;;;;;5042877;28;20028;-85
2022/06/24 05:02:44;;;;;;;3.72;1.10;;;;;;;;;;5042780;28;20028;-85
2022/06/24 05:05:11;;;;;;;3.80;1.02;;;;;;;;;;5042842;28;20044;-86
2022/06/24 05:07:38;;;;;;;2.10;1.10;;;;;;;;;;5026279;28;20039;-85
2022/06/24 05:10:05;;;;;;;3.80;1.55;;;;;;;;;;5042482;28;20070;-86
2022/06/24 05:12:31;;;;;;;2.55;1.10;;;;;;;;;;5026464;28;20052;-85
2022/06/24 05:14:56;;;;;;;1.95;0.93;;;;;;;;;;5042378;28;20401;-81
2022/06/24 05:17:23;;;;;;;2.17;0.80;;;;;;;;;;5021226;28;20032;-83
2022/06/24 05:19:48;;;;;;;2.53;0.90;;;;;;;;;;5038491;28;20068;-83
2022/06/24 05:22:14;;;;;;;1.90;0.90;;;;;;;;;;5005460;28;20398;-83
2022/06/24 05:24:40;;;;;;;3.90;1.23;;;;;;;;;;5021328;28;20056;-82
2022/06/24 05:27:05;;;;;;;2.47;1.17;;;;;;;;;;5021721;28;20036;-84
2022/06/24 05:29:31;;;;;;;1.70;1.00;;;;;;;;;;5034419;28;20098;-81
2022/06/24 05:31:56;;;;;;;3.17;1.02;;;;;;;;;;5037619;28;20440;-82
2022/06/24 05:34:22;;;;;;;4.43;0.90;;;;;;;;;;5021516;28;20449;-82
2022/06/24 05:36:47;;;;;;;2.08;1.13;;;;;;;;;;5021111;28;20126;-82
2022/06/24 05:39:14;;;;;;;2.13;0.98;;;;;;;;;;5037817;28;20040;-83
2022/06/24 05:41:41;;;;;;;3.72;1.02;;;;;;;;;;5035028;28;20028;-83
2022/06/24 05:44:06;;;;;;;4.32;1.05;;;;;;;;;;5057422;28;20060;-84
2022/06/24 05:46:32;;;;;;;2.80;0.90;;;;;;;;;;5041934;28;20039;-83
2022/06/24 05:48:57;;;;;;;2.85;1.30;;;;;;;;;;5025070;28;20533;-84
2022/06/24 05:51:23;;;;;;;2.95;1.40;;;;;;;;;;5030116;28;20108;-83
2022/06/24 05:56:35;;;;;;;3.58;1.60;;;;;;;;;;5025838;28;20028;-88
2022/06/24 05:59:00;;;;;;;4.57;1.70;;;;;;;;;;5007054;28;20093;-87
2022/06/24 06:01:28;;;;;;;3.85;1.20;;;;;;;;;;5025064;28;20405;-88
2022/06/24 06:03:55;;;;;;;2.75;0.90;;;;;;;;;;5011063;28;20032;-89
2022/06/24 06:06:23;;;;;;;3.42;1.38;;;;;;;;;;5022204;28;20060;-87
2022/06/24 06:08:48;;;;;;;5.15;1.30;;;;;;;;;;5005654;28;20068;-88
2022/06/24 06:11:23;;;;;;;4.15;1.38;;;;;;;;;;5006067;28;20052;-89
2022/06/24 06:13:53;;;;;;;4.18;1.25;;;;;;;;;;5005792;28;20037;-89
2022/06/24 06:16:21;;;;;;;5.47;1.70;;;;;;;;;;5021461;28;20028;-88
2022/06/24 06:18:49;;;;;;;5.43;1.70;;;;;;;;;;5005608;28;20086;-88
2022/06/24 06:21:14;;;;;;;3.25;1.25;;;;;;;;;;5005547;28;20036;-88
2022/06/24 06:23:40;;;;;;;4.35;1.33;;;;;;;;;;5005093;28;20045;-87
2022/06/24 06:26:06;;;;;;;3.47;1.15;;;;;;;;;;5005607;28;20036;-80
2022/06/24 06:28:32;;;;;;;4.25;1.40;;;;;;;;;;5020455;28;20041;-80
2022/06/24 06:30:58;;;;;;;7.13;1.77;;;;;;;;;;5020244;28;20037;-80
2022/06/24 06:33:23;;;;;;;5.15;1.83;;;;;;;;;;5048262;28;20036;-79
2022/06/24 06:35:49;;;;;;;7.03;2.35;;;;;;;;;;5056765;28;20109;-81
2022/06/24 06:38:15;;;;;;;8.05;1.83;;;;;;;;;;5039176;28;20105;-81
2022/06/24 06:40:40;;;;;;;3.03;1.40;;;;;;;;;;5039799;28;20395;-81
2022/06/24 06:43:06;;;;;;;3.10;1.50;;;;;;;;;;5042790;28;20028;-81
2022/06/24 06:45:35;;;;;;;4.40;1.70;;;;;;;;;;5027224;28;20043;-81
2022/06/24 06:48:00;;;;;;;2.70;1.73;;;;;;;;;;5028004;28;20484;-81
2022/06/24 06:50:26;;;;;;;3.85;1.63;;;;;;;;;;5044057;28;20100;-80
2022/06/24 06:52:51;;;;;;;3.28;1.38;;;;;;;;;;5027886;28;20035;-81
2022/06/24 06:55:17;;;;;;;6.28;1.90;;;;;;;;;;5043878;28;20039;-81
2022/06/24 06:57:42;;;;;;;6.50;1.55;;;;;;;;;;5044355;28;20028;-82
2022/06/24 07:00:35;;;;;;;6.43;2.25;;;;;;;;;;5046679;28;20032;-82
2022/06/24 07:03:25;;;;;;;6.68;2.45;;;;;;;;;;5076004;28;20033;-82
2022/06/24 07:05:52;;;;;;;6.00;2.95;;;;;;;;;;5041867;28;20036;-82
2022/06/24 07:08:17;;;;;;;6.97;3.50;;;;;;;;;;5043656;28;20498;-82
2022/06/24 07:10:43;;;;;;;6.85;4.15;;;;;;;;;;5044059;28;20081;-82
2022/06/24 07:13:09;;;;;;;10.25;4.63;;;;;;;;;;5043608;28;20047;-82
2022/06/24 07:15:35;;;;;;;8.70;4.65;;;;;;;;;;5026945;28;20556;-82
2022/06/24 07:18:00;;;;;;;10.10;4.70;;;;;;;;;;5026576;28;20039;-81
2022/06/24 07:20:26;;;;;;;7.05;4.55;;;;;;;;;;5042614;28;20043;-81
2022/06/24 07:22:51;;;;;;;8.85;4.18;;;;;;;;;;5043205;28;20040;-81
2022/06/24 07:25:17;;;;;;;7.15;4.05;;;;;;;;;;5043475;28;20036;-81
2022/06/24 07:27:42;;;;;;;8.25;3.88;;;;;;;;;;5043192;28;20031;-81
2022/06/24 07:30:08;;;;;;;5.65;2.88;;;;;;;;;;5043122;28;20485;-81
2022/06/24 07:32:33;;;;;;;8.13;3.58;;;;;;;;;;5043612;28;20043;-81
2022/06/24 07:34:59;;;;;;;6.53;2.75;;;;;;;;;;5026910;28;20086;-81
2022/06/24 07:37:24;;;;;;;7.00;3.05;;;;;;;;;;5043362;28;20036;-81
2022/06/24 07:39:50;;;;;;;5.45;2.90;;;;;;;;;;5043619;28;20050;-81
2022/06/24 07:42:15;;;;;;;5.70;2.72;;;;;;;;;;5059397;28;20024;-81
2022/06/24 07:44:43;;;;;;;8.18;3.08;;;;;;;;;;5059576;28;20419;-82
2022/06/24 07:47:09;;;;;;;4.82;2.95;;;;;;;;;;5060366;28;20520;-82
2022/06/24 07:49:34;;;;;;;10.85;3.60;;;;;;;;;;5021874;28;20036;-82
2022/06/24 07:52:00;;;;;;;5.57;2.85;;;;;;;;;;5020108;28;20548;-81
2022/06/24 07:54:25;;;;;;;4.40;3.25;;;;;;;;;;5038689;28;20051;-80
2022/06/24 07:56:56;;;;;;;6.60;2.92;;;;;;;;;;5025684;28;20032;-81
2022/06/24 07:59:34;;;;;;;4.43;2.10;;;;;;;;;;5026784;28;20086;-81
2022/06/24 08:02:00;;;;;;;4.93;2.20;;;;;;;;;;5060437;28;20488;-82
2022/06/24 08:04:28;;;;;;;5.30;2.22;;;;;;;;;;5042977;28;20028;-82
2022/06/24 08:06:53;;;;;;;6.20;2.38;;;;;;;;;;5037218;28;20033;-81
2022/06/24 08:09:20;;;;;;;3.83;1.88;;;;;;;;;;5038700;28;20086;-82
2022/06/24 08:11:45;;;;;;;3.03;1.73;;;;;;;;;;5056075;28;20041;-81
2022/06/24 08:14:12;;;;;;;5.25;1.23;;;;;;;;;;5055151;28;20040;-81
2022/06/24 08:16:37;;;;;;;3.53;1.40;;;;;;;;;;5038600;28;20056;-82
2022/06/24 08:19:03;;;;;;;2.47;0.98;;;;;;;;;;5039909;28;20107;-82
2022/06/24 08:21:28;;;;;;;5.57;1.40;;;;;;;;;;5005895;28;20033;-82
2022/06/24 08:23:54;;;;;;;2.85;1.05;;;;;;;;;;5006016;28;20145;-83
2022/06/24 08:26:19;;;;;;;4.80;1.58;;;;;;;;;;5005895;28;20017;-82
2022/06/24 08:28:44;;;;;;;2.22;1.27;;;;;;;;;;5038994;28;20040;-83
2022/06/24 08:31:10;;;;;;;3.53;1.80;;;;;;;;;;5022017;28;20803;-82
2022/06/24 08:33:38;;;;;;;3.92;1.15;;;;;;;;;;5045445;28;20098;-82
2022/06/24 08:36:04;;;;;;;3.67;1.20;;;;;;;;;;5038167;28;20036;-82
2022/06/24 08:38:30;;;;;;;3.53;1.80;;;;;;;;;;5038758;28;20036;-81
2022/06/24 08:40:55;;;;;;;3.45;1.67;;;;;;;;;;5042366;28;20550;-81
2022/06/24 08:43:21;;;;;;;3.67;1.52;;;;;;;;;;5025715;28;20123;-81
2022/06/24 08:45:47;;;;;;;4.32;1.75;;;;;;;;;;5058692;28;20114;-82
2022/06/24 08:48:13;;;;;;;4.78;1.70;;;;;;;;;;5042010;28;20032;-82
2022/06/24 08:50:38;;;;;;;2.72;1.35;;;;;;;;;;5025115;28;20109;-81
2022/06/24 08:53:10;;;;;;;3.00;1.58;;;;;;;;;;5042086;28;20048;-82
2022/06/24 08:55:36;;;;;;;3.03;1.48;;;;;;;;;;5058193;28;20032;-82
2022/06/24 08:58:12;;;;;;;2.45;1.65;;;;;;;;;;5058313;28;20040;-81
2022/06/24 09:00:38;;;;;;;5.32;1.65;;;;;;;;;;5030343;28;20445;-82
2022/06/24 09:03:04;;;;;;;5.63;1.30;;;;;;;;;;5021719;28;20405;-82
2022/06/24 09:05:29;;;;;;;3.58;1.50;;;;;;;;;;5004380;28;20115;-81
2022/06/24 09:08:11;;;;;;;4.22;1.40;;;;;;;;;;5015998;28;20048;-82
2022/06/24 09:10:39;;;;;;;3.75;1.40;;;;;;;;;;5021759;28;20123;-81
2022/06/24 09:13:05;;;;;;;4.93;1.90;;;;;;;;;;5021949;28;20115;-81
2022/06/24 09:15:31;;;;;;;5.18;2.03;;;;;;;;;;5021458;28;20068;-80
2022/06/24 09:17:57;;;;;;;4.90;2.33;;;;;;;;;;5021703;28;20033;-81
2022/06/24 09:20:24;;;;;;;6.68;3.60;;;;;;;;;;5021689;28;20490;-81
2022/06/24 09:22:50;;;;;;;6.68;2.63;;;;;;;;;;5021795;28;20054;-81
2022/06/24 09:25:16;;;;;;;8.10;2.35;;;;;;;;;;5005122;28;20071;-81
2022/06/24 09:27:45;;;;;;;4.18;1.40;;;;;;;;;;5011752;28;20036;-81
2022/06/24 09:30:12;;;;;;;3.00;0.82;;;;;;;;;;5041573;28;20037;-81
2022/06/24 09:32:53;;;;;;;3.42;0.90;;;;;;;;;;5007464;28;20078;-81
2022/06/24 09:35:20;;;;;;;2.03;1.07;;;;;;;;;;5041175;28;20059;-80
2022/06/24 09:37:46;;;;;;;5.00;1.42;;;;;;;;;;5024128;28;20043;-81
2022/06/24 09:40:19;;;;;;;3.95;0.80;;;;;;;;;;5057466;28;20048;-80
2022/06/24 09:43:13;;;;;;;1.45;0.80;;;;;;;;;;5072795;28;20114;-81
2022/06/24 09:45:48;;;;;;;2.55;0.90;;;;;;;;;;5063118;28;20122;-83
2022/06/24 09:48:34;;;;;;;4.38;1.20;;;;;;;;;;5041577;28;20047;-81
2022/06/24 09:51:03;;;;;;;2.70;0.70;;;;;;;;;;5037568;28;20037;-80
2022/06/24 09:53:32;;;;;;;1.98;0.80;;;;;;;;;;5020669;28;20036;-80
2022/06/24 09:55:57;;;;;;;2.75;1.10;;;;;;;;;;5037881;28;20402;-81
2022/06/24 09:58:23;;;;;;;5.55;1.83;;;;;;;;;;5020793;28;20071;-81
2022/06/24 10:00:49;;;;;;;3.38;1.00;;;;;;;;;;5027742;28;20044;-81
2022/06/24 10:03:14;;;;;;;2.60;1.23;;;;;;;;;;5037143;28;20039;-81
2022/06/24 10:05:47;;;;;;;2.88;1.20;;;;;;;;;;5020916;28;20154;-82
2022/06/24 10:08:20;;;;;;;3.45;1.38;;;;;;;;;;5036685;28;20039;-82
2022/06/24 10:10:46;;;;;;;4.47;1.20;;;;;;;;;;5037991;28;20536;-82
2022/06/24 10:13:25;;;;;;;8.82;1.80;;;;;;;;;;5057042;28;20040;-82
2022/06/24 10:15:51;;;;;;;2.40;1.23;;;;;;;;;;5041144;28;20502;-82
2022/06/24 10:18:17;;;;;;;4.32;1.08;;;;;;;;;;5023779;28;20557;-82
2022/06/24 10:20:43;;;;;;;6.40;0.95;;;;;;;;;;5023930;28;20035;-83
2022/06/24 10:23:08;;;;;;;2.97;0.80;;;;;;;;;;5023947;28;20134;-85
2022/06/24 10:25:46;;;;;;;3.75;1.58;;;;;;;;;;5024722;28;20032;-86
2022/06/24 10:28:12;;;;;;;3.05;0.68;;;;;;;;;;5057804;28;20043;-85
2022/06/24 10:30:43;;;;;;;1.80;0.88;;;;;;;;;;5040518;28;20048;-85
2022/06/24 10:33:23;;;;;;;3.25;0.70;;;;;;;;;;5056089;28;20113;-85
2022/06/24 10:35:58;;;;;;;2.72;0.95;;;;;;;;;;5026580;28;20565;-87
2022/06/24 10:38:24;;;;;;;22.67;15.27;;;;;;;;;;5025624;28;20032;-87
2022/06/24 10:40:50;;;;;;;58.65;35.08;;;;;;;;;;5024547;28;20093;-87
2022/06/24 10:43:38;;;;;;;26.67;16.77;;;;;;;;;;5041476;28;20036;-87
2022/06/24 10:46:17;;;;;;;12.43;7.10;;;;;;;;;;5026178;28;20032;-89
2022/06/24 10:48:52;;;;;;;8.55;3.55;;;;;;;;;;5041320;28;20032;-88
2022/06/24 10:51:19;;;;;;;5.05;2.38;;;;;;;;;;5056727;28;20036;-88
2022/06/24 10:54:09;;;;;;;3.20;1.40;;;;;;;;;;5017899;28;20028;-87
2022/06/24 10:56:35;;;;;;;2.70;0.70;;;;;;;;;;5057578;28;20032;-88
2022/06/24 10:59:04;;;;;;;3.85;0.85;;;;;;;;;;5053978;28;20499;-87
2022/06/24 11:01:32;;;;;;;1.73;0.60;;;;;;;;;;5037353;28;20040;-87
2022/06/24 11:04:02;;;;;;;2.10;0.80;;;;;;;;;;5021298;28;20032;-87
2022/06/24 11:06:29;;;;;;;1.88;0.63;;;;;;;;;;5004552;28;20060;-87
2022/06/24 11:09:07;;;;;;;2.15;0.50;;;;;;;;;;5004769;28;20060;-87
2022/06/24 11:11:33;;;;;;;3.63;0.80;;;;;;;;;;5021206;28;20098;-86
2022/06/24 11:14:00;;;;;;;1.80;0.95;;;;;;;;;;5029464;28;20542;-86
2022/06/24 11:16:28;;;;;;;2.53;0.95;;;;;;;;;;5010889;28;20063;-85
2022/06/24 11:18:57;;;;;;;2.40;1.10;;;;;;;;;;5020673;28;20448;-86
2022/06/24 11:21:24;;;;;;;2.38;0.90;;;;;;;;;;5020074;28;20051;-85
2022/06/24 11:23:53;;;;;;;3.60;1.20;;;;;;;;;;5020502;28;20108;-86
2022/06/24 11:26:19;;;;;;;2.40;1.30;;;;;;;;;;5016768;28;20025;-84
2022/06/24 11:28:52;;;;;;;4.38;1.30;;;;;;;;;;5023987;28;20115;-85
2022/06/24 11:31:26;;;;;;;2.25;1.30;;;;;;;;;;5025719;28;20089;-84
2022/06/24 11:34:00;;;;;;;2.78;1.05;;;;;;;;;;5007267;28;20475;-84
2022/06/24 11:36:27;;;;;;;2.45;1.30;;;;;;;;;;5039526;28;20048;-84
2022/06/24 11:38:54;;;;;;;4.40;1.38;;;;;;;;;;5007172;28;20033;-85
2022/06/24 11:41:27;;;;;;;2.40;1.55;;;;;;;;;;5008509;28;20082;-82
2022/06/24 11:43:52;;;;;;;5.13;1.92;;;;;;;;;;5048497;28;20040;-82
2022/06/24 11:46:18;;;;;;;5.72;1.85;;;;;;;;;;5023096;28;20036;-82
2022/06/24 11:48:43;;;;;;;8.40;4.43;;;;;;;;;;5059109;28;20494;-81
2022/06/24 11:51:19;;;;;;;5.45;2.90;;;;;;;;;;5026281;28;20058;-81
2022/06/24 11:54:00;;;;;;;5.00;2.42;;;;;;;;;;5043119;28;20498;-82
2022/06/24 11:56:28;;;;;;;4.38;1.88;;;;;;;;;;5026897;28;20452;-81
2022/06/24 11:58:55;;;;;;;2.67;1.30;;;;;;;;;;5026747;28;20426;-81
2022/06/24 12:01:21;;;;;;;2.30;0.90;;;;;;;;;;5039256;28;20036;-82
2022/06/24 12:03:47;;;;;;;1.17;0.77;;;;;;;;;;5026363;28;20040;-81
2022/06/24 12:06:12;;;;;;;3.45;1.08;;;;;;;;;;5025752;28;20114;-81
2022/06/24 12:08:38;;;;;;;1.88;1.10;;;;;;;;;;5039027;28;20478;-81
2022/06/24 12:11:12;;;;;;;2.25;1.10;;;;;;;;;;5055639;28;20529;-81
2022/06/24 12:13:38;;;;;;;2.50;1.15;;;;;;;;;;5038590;28;20037;-81
2022/06/24 12:16:04;;;;;;;2.80;0.80;;;;;;;;;;5038973;28;20039;-81
2022/06/24 12:18:30;;;;;;;2.97;1.08;;;;;;;;;;5057283;28;20535;-82
2022/06/24 12:21:03;;;;;;;2.20;0.80;;;;;;;;;;5013245;28;20131;-82
2022/06/24 12:23:32;;;;;;;2.47;0.95;;;;;;;;;;5007134;28;20573;-82
2022/06/24 12:25:57;;;;;;;1.98;1.00;;;;;;;;;;5055745;28;20098;-81
2022/06/24 12:28:26;;;;;;;4.93;2.30;;;;;;;;;;5008467;28;20024;-81
2022/06/24 12:31:08;;;;;;;19.30;9.45;;;;;;;;;;5012285;28;20044;-81
2022/06/24 12:33:34;;;;;;;;;;;;;;;;;;5024175;28;20124;-81
2022/06/24 12:36:11;;;;;;;6.35;3.63;;;;;;;;;;5058630;28;20376;-81
2022/06/24 12:38:38;;;;;;;4.60;2.13;;;;;;;;;;5025979;28;20032;-82
2022/06/24 12:41:13;;;;;;;3.17;1.45;;;;;;;;;;5039826;28;20111;-81
2022/06/24 12:43:51;;;;;;;3.90;2.00;;;;;;;;;;5039224;28;20067;-84
2022/06/24 12:46:17;;;;;;;2.20;1.30;;;;;;;;;;5039742;28;20020;-83
2022/06/24 12:51:26;;;;;;;1.30;0.85;;;;;;;;;;5047302;28;20028;-86
2022/06/24 12:53:54;;;;;;;3.05;1.30;;;;;;;;;;5041847;28;20459;-85
2022/06/24 12:56:20;;;;;;;4.32;1.85;;;;;;;;;;5025797;28;20494;-84
2022/06/24 12:58:50;;;;;;;5.72;1.80;;;;;;;;;;5041767;28;20089;-84
2022/06/24 13:01:16;;;;;;;4.82;1.90;;;;;;;;;;5025398;28;20059;-83
2022/06/24 13:03:41;;;;;;;3.03;1.40;;;;;;;;;;5022050;28;20499;-83
2022/06/24 13:06:07;;;;;;;3.80;1.40;;;;;;;;;;5021843;28;20040;-84
2022/06/24 13:08:32;;;;;;;6.40;1.45;;;;;;;;;;5021554;28;20490;-85
2022/06/24 13:10:57;;;;;;;5.57;1.90;;;;;;;;;;5022192;28;20025;-85
2022/06/24 13:13:23;;;;;;;3.65;1.77;;;;;;;;;;5038257;28;20042;-84
2022/06/24 13:15:53;;;;;;;6.32;2.05;;;;;;;;;;5037525;28;20029;-83
2022/06/24 13:18:19;;;;;;;6.55;2.58;;;;;;;;;;5022014;28;20043;-83
2022/06/24 13:20:44;;;;;;;7.22;2.72;;;;;;;;;;5021764;28;20124;-83
2022/06/24 13:23:09;;;;;;;4.80;1.90;;;;;;;;;;5043501;28;20036;-83
2022/06/24 13:25:35;;;;;;;6.53;2.60;;;;;;;;;;5054456;28;20044;-83
2022/06/24 13:28:00;;;;;;;6.47;2.00;;;;;;;;;;5054392;28;20048;-84
2022/06/24 13:30:26;;;;;;;6.35;3.00;;;;;;;;;;5054075;28;20036;-86
2022/06/24 13:32:51;;;;;;;5.65;2.92;;;;;;;;;;5054732;28;20063;-86
2022/06/24 13:35:17;;;;;;;6.90;2.75;;;;;;;;;;5054440;28;20036;-86
2022/06/24 13:37:43;;;;;;;6.53;3.35;;;;;;;;;;5055300;28;20407;-86
2022/06/24 13:40:12;;;;;;;6.70;2.78;;;;;;;;;;5054806;28;20086;-87
2022/06/24 13:42:37;;;;;;;8.02;2.95;;;;;;;;;;5043345;28;20421;-87
2022/06/24 13:45:03;;;;;;;11.27;3.03;;;;;;;;;;5057625;28;20043;-87
2022/06/24 13:47:28;;;;;;;6.72;2.45;;;;;;;;;;5041646;28;20146;-85
2022/06/24 13:49:58;;;;;;;7.82;3.45;;;;;;;;;;5039778;28;20521;-86
2022/06/24 13:52:27;;;;;;;8.63;2.95;;;;;;;;;;5023998;28;20505;-86
2022/06/24 13:54:54;;;;;;;4.32;2.35;;;;;;;;;;5040173;28;20024;-86
2022/06/24 13:57:21;;;;;;;4.82;2.75;;;;;;;;;;5040183;28;20047;-87
2022/06/24 13:59:48;;;;;;;9.40;2.85;;;;;;;;;;5026080;28;20031;-86
2022/06/24 14:02:13;;;;;;;5.30;2.30;;;;;;;;;;5020432;28;20086;-87
2022/06/24 14:04:39;;;;;;;5.85;2.72;;;;;;;;;;5004543;28;20033;-86
2022/06/24 14:07:04;;;;;;;4.97;3.10;;;;;;;;;;5041033;28;20458;-87
2022/06/24 14:09:30;;;;;;;4.97;2.08;;;;;;;;;;5021499;28;20029;-87
2022/06/24 14:11:55;;;;;;;3.60;1.85;;;;;;;;;;5028753;28;20402;-87
2022/06/24 14:14:21;;;;;;;3.55;1.92;;;;;;;;;;5040696;28;20486;-87
2022/06/24 14:16:47;;;;;;;4.72;2.13;;;;;;;;;;5010280;28;20032;-87
2022/06/24 14:19:12;;;;;;;4.13;1.95;;;;;;;;;;5020999;28;20032;-87
2022/06/24 14:21:38;;;;;;;6.32;1.77;;;;;;;;;;5021049;28;20032;-87
2022/06/24 14:26:48;;;;;;;3.13;1.63;;;;;;;;;;5026234;28;20032;-87
2022/06/24 14:29:13;;;;;;;4.30;2.20;;;;;;;;;;5037401;28;20052;-87
2022/06/24 14:31:38;;;;;;;4.35;1.60;;;;;;;;;;5053803;28;20040;-87
2022/06/24 14:34:04;;;;;;;5.40;2.10;;;;;;;;;;5021190;28;20510;-87
2022/06/24 14:36:30;;;;;;;3.17;2.13;;;;;;;;;;5026072;28;20024;-87
2022/06/24 14:41:40;;;;;;;4.55;2.22;;;;;;;;;;5047000;28;20078;-87
2022/06/24 14:44:06;;;;;;;3.58;1.85;;;;;;;;;;5024589;28;20123;-87
2022/06/24 14:46:31;;;;;;;3.78;1.80;;;;;;;;;;5023416;28;20516;-87
2022/06/24 14:48:56;;;;;;;5.43;1.60;;;;;;;;;;5025374;28;20040;-87
2022/06/24 14:51:22;;;;;;;4.40;2.03;;;;;;;;;;5004672;28;20502;-87
2022/06/24 14:53:47;;;;;;;4.50;1.58;;;;;;;;;;5020823;28;20045;-87
2022/06/24 14:56:13;;;;;;;4.82;1.63;;;;;;;;;;5004905;28;20032;-88
2022/06/24 14:58:38;;;;;;;3.15;1.25;;;;;;;;;;5005942;28;20052;-88
2022/06/24 15:01:06;;;;;;;11.93;2.15;;;;;;;;;;5022919;28;20032;-90